Time;durP1;ratioP1;P1;durP2;ratioP2;P2;SDS_P1;SDS_P2;PMS_P1;PMS_P2;Temp;Humidity;BMP_temperature;BMP_pressure;BME280_temperature;BME280_humidity;BME280_pressure;Samples;Min_cycle;Max_cycle;Signal;HPM_P1;HPM_P2
2023/09/07 00:00:19;;;;;;;;;;;20.40;99.90;;;;;;4980638;28;19926;-68
2023/09/07 00:02:47;;;;;;;;;;;20.30;99.90;;;;;;4988815;28;20362;-68
2023/09/07 00:05:16;;;;;;;;;;;20.40;99.90;;;;;;4997746;28;19977;-66
2023/09/07 00:07:44;;;;;;;;;;;20.30;99.90;;;;;;4979264;28;19929;-67
2023/09/07 00:10:12;;;;;;;;;;;20.30;99.90;;;;;;4988920;28;19926;-66
2023/09/07 00:12:40;;;;;;;;;;;20.20;99.90;;;;;;4980364;28;19994;-66
2023/09/07 00:15:10;;;;;;;;;;;20.20;99.90;;;;;;5002175;28;20512;-65
2023/09/07 00:17:38;;;;;;;;;;;20.20;99.90;;;;;;4996980;28;19929;-66
2023/09/07 00:20:11;;;;;;;;;;;20.10;99.90;;;;;;4981556;28;19926;-66
2023/09/07 00:22:40;;;;;;;;;;;20.10;99.90;;;;;;4987549;28;19925;-66
2023/09/07 00:25:09;;;;;;;;;;;20.10;99.90;;;;;;4981465;28;19973;-66
2023/09/07 00:27:36;;;;;;;;;;;20.10;99.90;;;;;;4986458;28;19933;-65
2023/09/07 00:30:05;;;;;;;;;;;20.00;99.90;;;;;;4988006;28;20351;-65
2023/09/07 00:32:33;;;;;;;;;;;20.00;99.90;;;;;;4991870;28;20403;-65
2023/09/07 00:35:00;;;;;;;;;;;20.00;99.90;;;;;;4975918;28;19969;-66
2023/09/07 00:37:28;;;;;;;;;;;20.00;99.90;;;;;;4991248;28;19926;-67
2023/09/07 00:39:57;;;;;;;;;;;19.90;99.90;;;;;;4975843;28;19926;-66
2023/09/07 00:42:25;;;;;;;;;;;19.90;99.90;;;;;;4987016;28;19930;-66
2023/09/07 00:44:54;;;;;;;;;;;19.90;99.90;;;;;;4981343;28;19942;-67
2023/09/07 00:47:22;;;;;;;;;;;19.90;99.90;;;;;;4987692;28;19930;-66
2023/09/07 00:49:50;;;;;;;;;;;19.90;99.90;;;;;;4980708;28;19933;-65
2023/09/07 00:52:19;;;;;;;;;;;19.90;99.90;;;;;;4981679;28;19974;-67
2023/09/07 00:54:47;;;;;;;;;;;19.90;99.90;;;;;;4983191;28;20411;-67
2023/09/07 00:57:16;;;;;;;;;;;19.90;99.90;;;;;;4972451;28;19981;-66
2023/09/07 00:59:44;;;;;;;;;;;19.90;99.90;;;;;;4987923;28;19929;-66
2023/09/07 01:02:12;;;;;;;;;;;19.90;99.90;;;;;;4980396;28;19926;-66
2023/09/07 01:04:42;;;;;;;;;;;19.80;99.90;;;;;;4982714;28;19949;-67
2023/09/07 01:07:14;;;;;;;;;;;19.80;99.90;;;;;;4995671;28;19937;-66
2023/09/07 01:09:43;;;;;;;;;;;19.70;99.90;;;;;;4992111;28;20102;-66
2023/09/07 01:12:14;;;;;;;;;;;19.80;99.90;;;;;;4987254;28;20292;-66
2023/09/07 01:14:44;;;;;;;;;;;19.80;99.90;;;;;;4988475;28;19988;-66
2023/09/07 01:17:13;;;;;;;;;;;19.90;99.90;;;;;;4995090;28;19983;-67
2023/09/07 01:19:41;;;;;;;;;;;19.90;99.90;;;;;;4995846;28;19926;-65
2023/09/07 01:22:11;;;;;;;;;;;19.90;99.90;;;;;;4979146;28;20115;-66
2023/09/07 01:24:39;;;;;;;;;;;19.80;99.90;;;;;;4992926;28;19930;-67
2023/09/07 01:27:07;;;;;;;;;;;19.90;99.90;;;;;;4992784;28;19980;-65
2023/09/07 01:29:37;;;;;;;;;;;19.80;99.90;;;;;;4990295;28;19977;-66
2023/09/07 01:32:05;;;;;;;;;;;19.80;99.90;;;;;;4985193;28;20006;-68
2023/09/07 01:34:33;;;;;;;;;;;19.70;99.90;;;;;;4984037;28;19967;-66
2023/09/07 01:37:01;;;;;;;;;;;19.70;99.90;;;;;;4983563;28;19926;-66
2023/09/07 01:39:30;;;;;;;;;;;19.60;99.90;;;;;;4988245;28;20355;-66
2023/09/07 01:41:58;;;;;;;;;;;19.50;99.90;;;;;;4978792;28;19989;-65
2023/09/07 01:44:26;;;;;;;;;;;19.50;99.90;;;;;;4988402;28;19926;-67
2023/09/07 01:46:54;;;;;;;;;;;19.40;99.90;;;;;;4992224;28;19933;-67
2023/09/07 01:49:22;;;;;;;;;;;19.40;99.90;;;;;;4986745;28;19930;-64
2023/09/07 01:51:52;;;;;;;;;;;19.40;99.90;;;;;;4994391;28;19988;-67
2023/09/07 01:54:21;;;;;;;;;;;19.50;99.90;;;;;;4987316;28;19926;-67
2023/09/07 01:56:50;;;;;;;;;;;19.50;99.90;;;;;;4979193;28;20388;-67
2023/09/07 01:59:18;;;;;;;;;;;19.50;99.90;;;;;;4975030;28;19997;-64
2023/09/07 02:01:46;;;;;;;;;;;19.50;99.90;;;;;;4988796;28;19973;-67
2023/09/07 02:04:13;;;;;;;;;;;19.50;99.90;;;;;;4975177;28;20012;-66
2023/09/07 02:06:41;;;;;;;;;;;19.40;99.90;;;;;;4982657;28;19925;-66
2023/09/07 02:09:09;;;;;;;;;;;19.40;99.90;;;;;;4980199;28;20388;-66
2023/09/07 02:11:37;;;;;;;;;;;19.40;99.90;;;;;;4979016;28;19926;-64
2023/09/07 02:14:06;;;;;;;;;;;19.40;99.90;;;;;;4982572;28;20315;-66
2023/09/07 02:16:34;;;;;;;;;;;19.40;99.90;;;;;;4994349;28;19925;-65
2023/09/07 02:19:03;;;;;;;;;;;19.50;99.90;;;;;;4991891;28;19930;-65
2023/09/07 02:21:31;;;;;;;;;;;19.30;99.90;;;;;;4989322;28;20015;-65
2023/09/07 02:23:59;;;;;;;;;;;19.30;99.90;;;;;;4976334;28;20692;-65
2023/09/07 02:26:26;;;;;;;;;;;19.30;99.90;;;;;;4975109;28;19977;-64
2023/09/07 02:28:54;;;;;;;;;;;19.30;99.90;;;;;;4990689;28;19930;-65
2023/09/07 02:31:23;;;;;;;;;;;19.30;99.90;;;;;;4975026;28;20050;-65
2023/09/07 02:33:51;;;;;;;;;;;19.20;99.90;;;;;;4982145;28;19925;-64
2023/09/07 02:36:19;;;;;;;;;;;19.20;99.90;;;;;;4984913;28;19969;-65
2023/09/07 02:38:47;;;;;;;;;;;19.30;99.90;;;;;;4978774;28;20397;-65
2023/09/07 02:41:14;;;;;;;;;;;19.30;99.90;;;;;;4982611;28;19927;-65
2023/09/07 02:43:42;;;;;;;;;;;19.30;99.90;;;;;;4981047;28;20016;-66
2023/09/07 02:46:10;;;;;;;;;;;19.30;99.90;;;;;;4985585;28;19926;-65
2023/09/07 02:48:39;;;;;;;;;;;19.30;99.90;;;;;;4988246;28;20483;-66
2023/09/07 02:51:18;;;;;;;;;;;19.30;99.90;;;;;;4990871;28;20005;-64
2023/09/07 02:53:46;;;;;;;;;;;19.10;99.90;;;;;;5002529;28;19948;-65
2023/09/07 02:56:13;;;;;;;;;;;19.10;99.90;;;;;;4987352;28;19930;-66
2023/09/07 02:58:41;;;;;;;;;;;19.00;99.90;;;;;;4989636;28;19926;-65
2023/09/07 03:01:09;;;;;;;;;;;18.90;99.90;;;;;;4993187;28;19985;-66
2023/09/07 03:03:37;;;;;;;;;;;18.80;99.90;;;;;;4992824;28;19926;-65
2023/09/07 03:06:13;;;;;;;;;;;18.70;99.90;;;;;;4990440;28;19926;-65
2023/09/07 03:08:41;;;;;;;;;;;18.60;99.90;;;;;;4986270;28;20351;-68
2023/09/07 03:11:09;;;;;;;;;;;18.60;99.90;;;;;;4978489;28;19990;-66
2023/09/07 03:13:37;;;;;;;;;;;18.50;99.90;;;;;;4985010;28;20360;-65
2023/09/07 03:16:05;;;;;;;;;;;18.50;99.90;;;;;;5001210;28;19925;-65
2023/09/07 03:18:33;;;;;;;;;;;18.50;99.90;;;;;;4988076;28;20377;-65
2023/09/07 03:21:02;;;;;;;;;;;18.50;99.90;;;;;;4981107;28;19926;-66
2023/09/07 03:23:32;;;;;;;;;;;18.50;99.90;;;;;;4981827;28;20307;-65
2023/09/07 03:26:00;;;;;;;;;;;18.50;99.90;;;;;;4989846;28;20020;-65
2023/09/07 03:28:28;;;;;;;;;;;18.50;99.90;;;;;;4988432;28;19993;-65
2023/09/07 03:30:57;;;;;;;;;;;18.50;99.90;;;;;;4974231;28;19961;-66
2023/09/07 03:33:24;;;;;;;;;;;18.50;99.90;;;;;;4988777;28;19941;-67
2023/09/07 03:35:52;;;;;;;;;;;18.50;99.90;;;;;;4989086;28;19965;-66
2023/09/07 03:38:20;;;;;;;;;;;18.60;99.90;;;;;;4988469;28;19934;-66
2023/09/07 03:40:49;;;;;;;;;;;18.60;99.90;;;;;;4994717;28;19930;-66
2023/09/07 03:43:17;;;;;;;;;;;18.50;99.90;;;;;;4991919;28;19925;-66
2023/09/07 03:45:44;;;;;;;;;;;18.50;99.90;;;;;;4992356;28;19932;-65
2023/09/07 03:48:12;;;;;;;;;;;18.40;99.90;;;;;;4992463;28;20389;-66
2023/09/07 03:50:40;;;;;;;;;;;18.40;99.90;;;;;;4993700;28;19934;-64
2023/09/07 03:53:08;;;;;;;;;;;18.40;99.90;;;;;;4990021;28;19996;-65
2023/09/07 03:55:41;;;;;;;;;;;18.30;99.90;;;;;;4988601;28;19925;-67
2023/09/07 03:58:10;;;;;;;;;;;18.30;99.90;;;;;;4996827;28;19929;-65
2023/09/07 04:00:39;;;;;;;;;;;18.20;99.90;;;;;;4990294;28;19929;-65
2023/09/07 04:03:07;;;;;;;;;;;18.20;99.90;;;;;;4994675;28;20388;-65
2023/09/07 04:05:37;;;;;;;;;;;18.10;99.90;;;;;;4994553;28;19925;-65
2023/09/07 04:08:05;;;;;;;;;;;18.20;99.90;;;;;;4993373;28;19948;-65
2023/09/07 04:10:33;;;;;;;;;;;18.30;99.90;;;;;;4988671;28;19938;-66
2023/09/07 04:15:54;;;;;;;;;;;18.20;99.90;;;;;;4993546;28;19929;-65
2023/09/07 04:18:21;;;;;;;;;;;18.10;99.90;;;;;;4986741;28;19934;-65
2023/09/07 04:20:49;;;;;;;;;;;18.10;99.90;;;;;;4988549;28;20600;-66
2023/09/07 04:23:17;;;;;;;;;;;18.00;99.90;;;;;;4992590;28;19936;-65
2023/09/07 04:25:45;;;;;;;;;;;17.90;99.90;;;;;;4993001;28;19942;-65
2023/09/07 04:28:12;;;;;;;;;;;17.90;99.90;;;;;;4992768;28;20151;-65
2023/09/07 04:30:40;;;;;;;;;;;18.00;99.90;;;;;;4990642;28;19973;-64
2023/09/07 04:33:09;;;;;;;;;;;17.90;99.90;;;;;;4991995;28;19930;-65
2023/09/07 04:35:37;;;;;;;;;;;17.90;99.90;;;;;;4992182;28;20400;-67
2023/09/07 04:38:05;;;;;;;;;;;17.80;99.90;;;;;;4993694;28;19966;-65
2023/09/07 04:40:33;;;;;;;;;;;17.80;99.90;;;;;;4991776;28;19940;-67
2023/09/07 04:43:01;;;;;;;;;;;17.90;99.90;;;;;;4992830;28;19952;-65
2023/09/07 04:45:28;;;;;;;;;;;17.90;99.90;;;;;;4993791;28;19992;-66
2023/09/07 04:47:56;;;;;;;;;;;17.80;99.90;;;;;;4992560;28;19933;-65
2023/09/07 04:50:25;;;;;;;;;;;17.90;99.90;;;;;;4988306;28;19945;-65
2023/09/07 04:52:53;;;;;;;;;;;17.80;99.90;;;;;;4988891;28;20784;-66
2023/09/07 04:55:21;;;;;;;;;;;17.80;99.90;;;;;;4990207;28;19933;-65
2023/09/07 04:57:49;;;;;;;;;;;17.80;99.90;;;;;;4992535;28;20916;-65
2023/09/07 05:00:17;;;;;;;;;;;17.80;99.90;;;;;;4989300;28;19940;-64
2023/09/07 05:02:45;;;;;;;;;;;17.80;99.90;;;;;;4992123;28;19938;-65
2023/09/07 05:05:13;;;;;;;;;;;17.90;99.90;;;;;;4992066;28;20016;-65
2023/09/07 05:07:42;;;;;;;;;;;17.90;99.90;;;;;;4990356;28;19930;-65
2023/09/07 05:10:12;;;;;;;;;;;17.80;99.90;;;;;;4989442;28;19937;-65
2023/09/07 05:12:40;;;;;;;;;;;17.90;99.90;;;;;;4988250;28;19934;-66
2023/09/07 05:15:08;;;;;;;;;;;17.90;99.90;;;;;;4990268;28;19926;-65
2023/09/07 05:17:36;;;;;;;;;;;17.80;99.90;;;;;;4989999;28;19934;-66
2023/09/07 05:20:05;;;;;;;;;;;17.80;99.90;;;;;;4988720;28;19930;-65
2023/09/07 05:22:36;;;;;;;;;;;17.80;99.90;;;;;;4988474;28;19933;-65
2023/09/07 05:25:06;;;;;;;;;;;17.80;99.90;;;;;;4991254;28;19933;-65
2023/09/07 05:27:34;;;;;;;;;;;17.80;99.90;;;;;;4987764;28;19949;-65
2023/09/07 05:30:02;;;;;;;;;;;17.80;99.90;;;;;;4989955;28;19977;-65
2023/09/07 05:32:30;;;;;;;;;;;17.80;99.90;;;;;;4991589;28;19930;-65
2023/09/07 05:34:58;;;;;;;;;;;17.90;99.90;;;;;;4986862;28;20316;-64
2023/09/07 05:37:25;;;;;;;;;;;17.90;99.90;;;;;;4990036;28;19926;-65
2023/09/07 05:39:53;;;;;;;;;;;17.90;99.90;;;;;;4990351;28;19929;-65
2023/09/07 05:42:22;;;;;;;;;;;18.00;99.90;;;;;;4988234;28;19981;-67
2023/09/07 05:44:50;;;;;;;;;;;18.00;99.90;;;;;;4989944;28;19976;-66
2023/09/07 05:47:21;;;;;;;;;;;18.10;99.90;;;;;;4990362;28;19926;-67
2023/09/07 05:49:49;;;;;;;;;;;18.10;99.90;;;;;;4993400;28;20601;-64
2023/09/07 05:52:16;;;;;;;;;;;18.20;99.90;;;;;;4992030;28;19941;-65
2023/09/07 05:54:44;;;;;;;;;;;18.20;99.90;;;;;;4987297;28;20398;-65
2023/09/07 05:57:12;;;;;;;;;;;18.30;99.90;;;;;;4994520;28;19933;-66
2023/09/07 05:59:41;;;;;;;;;;;18.40;99.90;;;;;;4994259;28;19975;-67
2023/09/07 06:02:09;;;;;;;;;;;18.40;99.90;;;;;;4993165;28;20360;-66
2023/09/07 06:04:37;;;;;;;;;;;18.50;99.90;;;;;;4991593;28;19926;-67
2023/09/07 06:07:04;;;;;;;;;;;18.60;99.90;;;;;;4991180;28;20296;-65
2023/09/07 06:09:32;;;;;;;;;;;18.60;99.90;;;;;;4990981;28;20419;-65
2023/09/07 06:12:00;;;;;;;;;;;18.70;99.90;;;;;;4990107;28;19972;-68
2023/09/07 06:14:28;;;;;;;;;;;18.70;99.90;;;;;;4995466;28;19925;-64
2023/09/07 06:16:57;;;;;;;;;;;18.80;99.90;;;;;;4996423;28;19932;-64
2023/09/07 06:19:24;;;;;;;;;;;18.90;99.90;;;;;;4985661;28;20030;-64
2023/09/07 06:21:52;;;;;;;;;;;19.00;99.90;;;;;;4994366;28;19926;-64
2023/09/07 06:24:20;;;;;;;;;;;19.10;99.90;;;;;;4994139;28;19926;-64
2023/09/07 06:26:49;;;;;;;;;;;19.20;99.90;;;;;;4994564;28;19930;-67
2023/09/07 06:29:17;;;;;;;;;;;19.30;99.90;;;;;;4994504;28;20085;-63
2023/09/07 06:31:45;;;;;;;;;;;19.40;99.90;;;;;;4993993;28;19929;-64
2023/09/07 06:34:14;;;;;;;;;;;19.50;99.90;;;;;;4993969;28;19933;-64
2023/09/07 06:36:42;;;;;;;;;;;19.60;99.90;;;;;;4994468;28;20307;-64
2023/09/07 06:39:15;;;;;;;;;;;19.70;99.90;;;;;;4994245;28;19934;-64
2023/09/07 06:41:42;;;;;;;;;;;19.80;99.90;;;;;;4993736;28;20285;-64
2023/09/07 06:44:10;;;;;;;;;;;19.90;99.90;;;;;;4995497;28;20499;-64
2023/09/07 06:46:38;;;;;;;;;;;19.90;99.90;;;;;;5008409;28;19930;-64
2023/09/07 06:49:06;;;;;;;;;;;20.00;99.90;;;;;;4994153;28;19926;-64
2023/09/07 06:51:35;;;;;;;;;;;20.10;99.90;;;;;;4993943;28;19977;-64
2023/09/07 06:54:03;;;;;;;;;;;20.20;99.90;;;;;;4985261;28;19933;-64
2023/09/07 06:56:33;;;;;;;;;;;20.20;99.90;;;;;;4994132;28;19930;-64
2023/09/07 06:59:01;;;;;;;;;;;20.30;99.90;;;;;;4993827;28;19937;-64
2023/09/07 07:01:28;;;;;;;;;;;20.40;99.90;;;;;;4992720;28;19925;-64
2023/09/07 07:03:56;;;;;;;;;;;20.50;99.90;;;;;;4992956;28;19988;-64
2023/09/07 07:06:25;;;;;;;;;;;20.60;99.90;;;;;;4985948;28;20020;-64
2023/09/07 07:08:54;;;;;;;;;;;20.70;99.90;;;;;;4993835;28;20442;-65
2023/09/07 07:11:21;;;;;;;;;;;20.80;99.90;;;;;;4993427;28;19929;-64
2023/09/07 07:13:49;;;;;;;;;;;20.90;99.90;;;;;;4993274;28;19961;-64
2023/09/07 07:16:17;;;;;;;;;;;21.00;99.90;;;;;;4998861;28;19926;-65
2023/09/07 07:18:45;;;;;;;;;;;21.00;99.90;;;;;;4988366;28;19926;-65
2023/09/07 07:21:18;;;;;;;;;;;21.10;99.90;;;;;;4993386;28;20404;-64
2023/09/07 07:23:46;;;;;;;;;;;21.10;99.90;;;;;;4993343;28;20368;-64
2023/09/07 07:26:15;;;;;;;;;;;21.20;99.90;;;;;;4992879;28;19980;-64
2023/09/07 07:28:43;;;;;;;;;;;21.30;99.90;;;;;;4993473;28;19929;-64
2023/09/07 07:31:19;;;;;;;;;;;21.40;99.90;;;;;;4993097;28;19933;-65
2023/09/07 07:33:48;;;;;;;;;;;21.50;99.90;;;;;;4993174;28;19930;-64
2023/09/07 07:36:16;;;;;;;;;;;21.60;99.90;;;;;;4993140;28;20427;-66
2023/09/07 07:38:44;;;;;;;;;;;21.60;99.90;;;;;;4992603;28;19930;-65
2023/09/07 07:41:12;;;;;;;;;;;21.70;99.90;;;;;;4992891;28;19930;-67
2023/09/07 07:43:41;;;;;;;;;;;21.80;99.90;;;;;;4992772;28;19925;-65
2023/09/07 07:46:09;;;;;;;;;;;22.00;99.90;;;;;;5010206;28;19925;-66
2023/09/07 07:48:37;;;;;;;;;;;22.10;99.90;;;;;;4982095;28;19969;-66
2023/09/07 07:51:05;;;;;;;;;;;22.20;99.90;;;;;;4992743;28;20447;-65
2023/09/07 07:53:36;;;;;;;;;;;22.20;99.90;;;;;;4992531;28;19926;-66
2023/09/07 07:56:04;;;;;;;;;;;22.30;99.90;;;;;;4992719;28;19932;-66
2023/09/07 07:58:32;;;;;;;;;;;22.50;99.90;;;;;;4993030;28;19926;-65
2023/09/07 08:01:01;;;;;;;;;;;22.70;99.90;;;;;;4992719;28;20579;-66
2023/09/07 08:03:29;;;;;;;;;;;22.80;99.90;;;;;;4985278;28;19929;-66
2023/09/07 08:05:57;;;;;;;;;;;22.90;99.90;;;;;;4992768;28;19925;-66
2023/09/07 08:08:25;;;;;;;;;;;23.00;99.90;;;;;;4984839;28;19942;-65
2023/09/07 08:10:53;;;;;;;;;;;23.20;99.90;;;;;;4992025;28;19926;-66
2023/09/07 08:13:21;;;;;;;;;;;23.30;99.90;;;;;;4991901;28;20025;-66
2023/09/07 08:15:48;;;;;;;;;;;23.30;99.90;;;;;;5006936;28;19987;-66
2023/09/07 08:18:18;;;;;;;;;;;23.50;99.90;;;;;;5001795;28;20500;-66
2023/09/07 08:20:46;;;;;;;;;;;23.70;99.90;;;;;;4992325;28;19926;-66
2023/09/07 08:23:13;;;;;;;;;;;24.00;99.90;;;;;;4991946;28;20355;-66
2023/09/07 08:25:46;;;;;;;;;;;24.10;99.90;;;;;;4991001;28;20019;-65
2023/09/07 08:28:15;;;;;;;;;;;24.30;99.90;;;;;;4990748;28;19933;-65
2023/09/07 08:30:43;;;;;;;;;;;24.50;99.90;;;;;;4992149;28;19958;-64
2023/09/07 08:33:11;;;;;;;;;;;24.70;99.90;;;;;;4992017;28;20017;-65
2023/09/07 08:35:43;;;;;;;;;;;24.80;99.90;;;;;;4992323;28;20025;-65
2023/09/07 08:38:13;;;;;;;;;;;24.90;99.90;;;;;;4992149;28;19937;-66
2023/09/07 08:40:41;;;;;;;;;;;24.90;99.90;;;;;;4991792;28;19981;-64
2023/09/07 08:43:11;;;;;;;;;;;24.90;99.90;;;;;;4991814;28;20312;-66
2023/09/07 08:45:42;;;;;;;;;;;24.90;99.90;;;;;;5000044;28;20014;-65
2023/09/07 08:48:11;;;;;;;;;;;25.10;99.90;;;;;;5000008;28;20309;-65
2023/09/07 08:50:40;;;;;;;;;;;25.20;99.90;;;;;;4992164;28;19929;-66
2023/09/07 08:53:09;;;;;;;;;;;25.40;99.90;;;;;;4991648;28;20407;-66
2023/09/07 08:55:37;;;;;;;;;;;25.60;99.90;;;;;;4991425;28;19925;-65
2023/09/07 08:58:05;;;;;;;;;;;25.70;99.90;;;;;;4991971;28;20451;-66
2023/09/07 09:00:32;;;;;;;;;;;25.70;99.90;;;;;;4992044;28;20411;-66
2023/09/07 09:03:00;;;;;;;;;;;25.80;99.90;;;;;;4991646;28;19932;-65
2023/09/07 09:05:29;;;;;;;;;;;26.00;99.90;;;;;;4984155;28;19926;-67
2023/09/07 09:08:03;;;;;;;;;;;26.10;99.90;;;;;;4992084;28;19926;-66
2023/09/07 09:10:33;;;;;;;;;;;26.20;99.90;;;;;;4991969;28;19926;-66
2023/09/07 09:13:00;;;;;;;;;;;26.10;99.90;;;;;;4990920;28;20458;-66
2023/09/07 09:15:28;;;;;;;;;;;26.10;99.90;;;;;;4985963;28;19930;-65
2023/09/07 09:17:56;;;;;;;;;;;26.40;99.90;;;;;;4984139;28;19925;-66
2023/09/07 09:20:24;;;;;;;;;;;26.70;99.90;;;;;;4991685;28;19973;-66
2023/09/07 09:22:53;;;;;;;;;;;26.90;99.90;;;;;;4991468;28;19933;-66
2023/09/07 09:25:21;;;;;;;;;;;27.20;99.90;;;;;;4993934;28;20385;-66
2023/09/07 09:27:50;;;;;;;;;;;27.50;99.90;;;;;;4995545;28;19930;-66
2023/09/07 09:30:18;;;;;;;;;;;27.50;99.90;;;;;;4995482;28;19984;-66
2023/09/07 09:32:45;;;;;;;;;;;27.60;99.90;;;;;;4995078;28;19930;-66
2023/09/07 09:35:13;;;;;;;;;;;27.70;99.90;;;;;;4995414;28;19930;-65
2023/09/07 09:37:45;;;;;;;;;;;27.90;99.90;;;;;;4995683;28;19953;-65
2023/09/07 09:40:14;;;;;;;;;;;28.10;99.90;;;;;;4995268;28;19936;-66
2023/09/07 09:42:42;;;;;;;;;;;28.00;99.90;;;;;;4994669;28;19936;-66
2023/09/07 09:45:12;;;;;;;;;;;27.90;99.90;;;;;;5004222;28;19933;-66
2023/09/07 09:47:40;;;;;;;;;;;27.80;99.90;;;;;;5001559;28;19929;-66
2023/09/07 09:50:09;;;;;;;;;;;27.80;99.90;;;;;;4995128;28;20020;-66
2023/09/07 09:52:38;;;;;;;;;;;27.90;99.90;;;;;;4994841;28;19926;-66
2023/09/07 09:55:07;;;;;;;;;;;28.10;99.90;;;;;;4994966;28;20009;-65
2023/09/07 09:57:36;;;;;;;;;;;28.40;99.90;;;;;;4995160;28;20332;-66
2023/09/07 10:00:19;;;;;;;;;;;28.70;99.90;;;;;;4994408;28;19959;-66
2023/09/07 10:02:50;;;;;;;;;;;28.80;99.90;;;;;;4994641;28;19926;-67
2023/09/07 10:05:19;;;;;;;;;;;28.80;99.10;;;;;;4994684;28;20008;-66
2023/09/07 10:07:49;;;;;;;;;;;28.90;99.30;;;;;;4994973;28;19925;-66
2023/09/07 10:10:19;;;;;;;;;;;29.00;99.40;;;;;;4994622;28;20381;-66
2023/09/07 10:12:53;;;;;;;;;;;29.30;99.50;;;;;;4994359;28;19926;-66
2023/09/07 10:15:24;;;;;;;;;;;29.40;99.00;;;;;;4990590;28;20322;-66
2023/09/07 10:18:02;;;;;;;;;;;29.50;98.20;;;;;;5006021;28;19926;-66
2023/09/07 10:20:35;;;;;;;;;;;29.30;98.30;;;;;;4994911;28;19965;-65
2023/09/07 10:23:04;;;;;;;;;;;29.30;98.60;;;;;;4994303;28;20392;-66
2023/09/07 10:25:32;;;;;;;;;;;29.60;99.20;;;;;;4986904;28;19926;-66
2023/09/07 10:27:59;;;;;;;;;;;29.60;98.20;;;;;;4994293;28;19930;-65
2023/09/07 10:30:28;;;;;;;;;;;29.40;98.20;;;;;;4993728;28;19933;-66
2023/09/07 10:32:57;;;;;;;;;;;29.40;98.50;;;;;;4993884;28;19932;-66
2023/09/07 10:35:28;;;;;;;;;;;29.50;98.50;;;;;;4993818;28;20400;-66
2023/09/07 10:37:56;;;;;;;;;;;29.60;98.00;;;;;;4994566;28;20016;-66
2023/09/07 10:40:25;;;;;;;;;;;29.70;97.50;;;;;;4994455;28;20024;-66
2023/09/07 10:43:01;;;;;;;;;;;29.80;97.00;;;;;;4994156;28;19981;-66
2023/09/07 10:45:29;;;;;;;;;;;29.90;96.90;;;;;;5002335;28;19941;-66
2023/09/07 10:47:58;;;;;;;;;;;30.20;97.60;;;;;;5002238;28;19949;-66
2023/09/07 10:50:26;;;;;;;;;;;30.40;97.00;;;;;;4994225;28;19929;-66
2023/09/07 10:52:54;;;;;;;;;;;30.80;96.40;;;;;;4993667;28;19926;-66
2023/09/07 10:55:22;;;;;;;;;;;31.00;96.40;;;;;;4993849;28;19929;-66
2023/09/07 10:57:50;;;;;;;;;;;30.50;96.10;;;;;;4994217;28;19926;-66
2023/09/07 11:00:17;;;;;;;;;;;30.30;96.80;;;;;;4993894;28;19969;-66
2023/09/07 11:02:45;;;;;;;;;;;30.40;96.80;;;;;;4992995;28;19925;-66
2023/09/07 11:05:15;;;;;;;;;;;30.60;96.10;;;;;;4993823;28;20026;-65
2023/09/07 11:07:43;;;;;;;;;;;30.50;96.30;;;;;;4993857;28;19925;-66
2023/09/07 11:10:11;;;;;;;;;;;30.40;96.10;;;;;;4993670;28;20384;-66
2023/09/07 11:12:39;;;;;;;;;;;30.40;96.10;;;;;;4993394;28;19984;-67
2023/09/07 11:15:10;;;;;;;;;;;30.60;95.80;;;;;;5001703;28;19933;-66
2023/09/07 11:17:39;;;;;;;;;;;30.70;96.70;;;;;;5006764;28;19926;-65
2023/09/07 11:20:08;;;;;;;;;;;31.00;95.70;;;;;;4993539;28;19973;-66
2023/09/07 11:22:38;;;;;;;;;;;31.20;94.90;;;;;;4993088;28;20363;-66
2023/09/07 11:25:22;;;;;;;;;;;31.70;94.40;;;;;;4993544;28;19975;-66
2023/09/07 11:27:49;;;;;;;;;;;32.00;94.80;;;;;;4993514;28;19938;-66
2023/09/07 11:30:17;;;;;;;;;;;31.70;94.20;;;;;;5031194;23;19926;-65
2023/09/07 11:32:46;;;;;;;;;;;31.90;94.30;;;;;;5010944;28;20415;-64
2023/09/07 11:35:14;;;;;;;;;;;31.90;94.30;;;;;;5012603;28;20410;-65
2023/09/07 11:37:43;;;;;;;;;;;31.90;93.40;;;;;;5012795;28;19925;-65
2023/09/07 11:40:12;;;;;;;;;;;31.80;93.30;;;;;;5012722;28;20602;-65
2023/09/07 11:42:41;;;;;;;;;;;31.90;92.70;;;;;;4999797;28;19976;-65
2023/09/07 11:45:10;;;;;;;;;;;32.30;93.00;;;;;;4999689;28;20054;-65
2023/09/07 11:47:37;;;;;;;;;;;32.20;92.10;;;;;;4999669;28;20388;-64
2023/09/07 11:50:06;;;;;;;;;;;31.80;92.90;;;;;;5009262;28;20454;-65
2023/09/07 11:52:34;;;;;;;;;;;31.90;92.70;;;;;;4985400;28;19930;-66
2023/09/07 11:55:04;;;;;;;;;;;31.90;92.00;;;;;;4992989;28;19925;-64
2023/09/07 11:57:31;;;;;;;;;;;32.10;92.70;;;;;;4993115;28;20001;-65
2023/09/07 11:59:59;;;;;;;;;;;32.10;91.40;;;;;;5001257;28;19976;-65
2023/09/07 12:02:27;;;;;;;;;;;31.90;91.20;;;;;;5008580;28;20308;-65
2023/09/07 12:04:55;;;;;;;;;;;31.90;91.60;;;;;;4993011;28;19926;-64
2023/09/07 12:07:23;;;;;;;;;;;31.90;92.30;;;;;;5010783;28;19926;-65
2023/09/07 12:09:51;;;;;;;;;;;32.00;92.00;;;;;;4996333;28;20332;-64
2023/09/07 12:12:20;;;;;;;;;;;32.10;92.10;;;;;;5001866;28;19926;-65
2023/09/07 12:14:48;;;;;;;;;;;32.00;92.00;;;;;;5004126;28;19971;-64
2023/09/07 12:17:15;;;;;;;;;;;31.90;91.50;;;;;;5011881;28;19926;-64
2023/09/07 12:19:45;;;;;;;;;;;31.90;91.40;;;;;;5012284;28;19963;-65
2023/09/07 12:22:13;;;;;;;;;;;32.10;91.40;;;;;;5003600;28;19952;-66
2023/09/07 12:24:41;;;;;;;;;;;32.40;91.30;;;;;;5000204;28;19962;-65
2023/09/07 12:27:09;;;;;;;;;;;32.30;90.80;;;;;;5000621;28;19935;-65
2023/09/07 12:29:38;;;;;;;;;;;32.30;91.00;;;;;;5006681;28;19925;-65
2023/09/07 12:32:06;;;;;;;;;;;32.50;90.30;;;;;;5011945;28;19980;-64
2023/09/07 12:34:34;;;;;;;;;;;32.70;90.60;;;;;;4984770;28;19926;-64
2023/09/07 12:37:03;;;;;;;;;;;32.70;90.60;;;;;;4999773;28;20400;-65
2023/09/07 12:39:31;;;;;;;;;;;32.70;90.10;;;;;;5000121;28;20304;-65
2023/09/07 12:41:59;;;;;;;;;;;32.80;89.50;;;;;;4999178;28;20008;-65
2023/09/07 12:44:27;;;;;;;;;;;32.60;90.00;;;;;;5003321;28;22905;-64
2023/09/07 12:46:56;;;;;;;;;;;32.40;90.00;;;;;;5006923;28;19929;-65
2023/09/07 12:49:24;;;;;;;;;;;32.80;90.10;;;;;;5002252;28;19926;-65
2023/09/07 12:51:51;;;;;;;;;;;32.90;89.00;;;;;;5003724;28;20283;-64
2023/09/07 12:54:19;;;;;;;;;;;32.70;90.00;;;;;;5002997;28;19933;-65
2023/09/07 12:56:47;;;;;;;;;;;32.70;86.70;;;;;;5005612;28;19926;-64
2023/09/07 12:59:14;;;;;;;;;;;33.10;86.20;;;;;;4993395;28;19930;-65
2023/09/07 13:01:42;;;;;;;;;;;33.40;87.10;;;;;;4991107;28;20032;-64
2023/09/07 13:04:12;;;;;;;;;;;33.40;87.60;;;;;;4991845;28;19925;-64
2023/09/07 13:06:40;;;;;;;;;;;33.60;87.40;;;;;;4999306;28;19926;-64
2023/09/07 13:09:09;;;;;;;;;;;33.80;87.00;;;;;;4999933;28;19956;-64
2023/09/07 13:11:37;;;;;;;;;;;33.70;87.10;;;;;;4988566;28;20368;-64
2023/09/07 13:14:05;;;;;;;;;;;33.70;85.50;;;;;;5000291;28;20024;-64
2023/09/07 13:16:39;;;;;;;;;;;33.80;86.90;;;;;;5000970;28;19929;-64
2023/09/07 13:19:07;;;;;;;;;;;33.70;85.80;;;;;;5003834;28;19929;-65
2023/09/07 13:21:36;;;;;;;;;;;33.80;84.50;;;;;;4987645;28;19953;-64
2023/09/07 13:24:04;;;;;;;;;;;33.40;84.10;;;;;;5011045;28;20319;-65
2023/09/07 13:26:32;;;;;;;;;;;33.20;84.70;;;;;;5000008;28;19964;-64
2023/09/07 13:29:00;;;;;;;;;;;32.80;85.70;;;;;;4996563;28;19925;-64
2023/09/07 13:31:28;;;;;;;;;;;32.90;86.40;;;;;;5006981;28;19929;-65
2023/09/07 13:33:55;;;;;;;;;;;33.10;84.60;;;;;;4991339;28;20466;-64
2023/09/07 13:36:23;;;;;;;;;;;33.30;83.90;;;;;;5001645;28;19984;-65
2023/09/07 13:38:54;;;;;;;;;;;33.10;83.60;;;;;;5011160;28;19980;-65
2023/09/07 13:41:21;;;;;;;;;;;33.10;83.30;;;;;;5001301;28;19926;-65
2023/09/07 13:43:49;;;;;;;;;;;33.30;81.90;;;;;;4997679;28;19926;-65
2023/09/07 13:46:17;;;;;;;;;;;33.50;81.80;;;;;;5007398;28;19925;-65
2023/09/07 13:48:45;;;;;;;;;;;33.80;82.30;;;;;;4991634;28;19941;-65
2023/09/07 13:51:13;;;;;;;;;;;33.70;82.70;;;;;;5007564;28;19975;-64
2023/09/07 13:53:40;;;;;;;;;;;33.90;82.00;;;;;;4982964;28;19930;-64
2023/09/07 13:56:10;;;;;;;;;;;34.00;82.00;;;;;;4998506;28;19932;-65
2023/09/07 13:58:37;;;;;;;;;;;34.20;80.60;;;;;;4987839;28;19926;-64
2023/09/07 14:01:05;;;;;;;;;;;34.20;81.10;;;;;;5003580;28;20020;-64
2023/09/07 14:03:33;;;;;;;;;;;34.20;80.60;;;;;;5002216;28;19937;-65
2023/09/07 14:06:02;;;;;;;;;;;34.00;78.40;;;;;;4998178;28;19933;-64
2023/09/07 14:08:33;;;;;;;;;;;34.20;79.40;;;;;;5006619;28;20358;-65
2023/09/07 14:11:00;;;;;;;;;;;34.20;79.10;;;;;;4993476;28;20304;-65
2023/09/07 14:13:29;;;;;;;;;;;34.00;80.40;;;;;;4994387;28;19926;-65
2023/09/07 14:15:57;;;;;;;;;;;34.00;80.10;;;;;;5001110;28;19965;-64
2023/09/07 14:18:26;;;;;;;;;;;33.90;79.70;;;;;;4995837;28;19925;-65
2023/09/07 14:20:57;;;;;;;;;;;33.90;80.00;;;;;;5008615;28;19945;-65
2023/09/07 14:23:25;;;;;;;;;;;33.90;78.20;;;;;;4995723;28;19937;-65
2023/09/07 14:25:54;;;;;;;;;;;34.20;79.30;;;;;;5002211;28;19929;-65